Time;durP1;ratioP1;P1;durP2;ratioP2;P2;SDS_P1;SDS_P2;PMS_P1;PMS_P2;Temp;Humidity;BMP_temperature;BMP_pressure;BME280_temperature;BME280_humidity;BME280_pressure;Samples;Min_cycle;Max_cycle;Signal;HPM_P1;HPM_P2
2023/08/03 00:00:36;;;;;;;4.50;1.57;;;;;;;18.62;86.49;97278.22;5173595;27;42138;-77
2023/08/03 00:03:03;;;;;;;2.90;1.20;;;;;;;18.67;86.31;97281.97;5141366;27;41592;-77
2023/08/03 00:05:32;;;;;;;3.73;1.50;;;;;;;18.67;85.63;97276.63;5159309;27;43007;-79
2023/08/03 00:08:00;;;;;;;5.07;1.30;;;;;;;18.67;85.52;97281.16;5158353;27;40876;-78
2023/08/03 00:10:27;;;;;;;4.20;1.00;;;;;;;18.63;85.39;97282.56;5140457;27;40677;-78
2023/08/03 00:12:55;;;;;;;2.43;1.17;;;;;;;18.58;85.56;97287.63;5157739;27;42721;-78
2023/08/03 00:15:22;;;;;;;3.73;1.37;;;;;;;18.51;85.38;97287.50;5175331;27;42387;-78
2023/08/03 00:17:50;;;;;;;3.93;1.37;;;;;;;18.37;85.49;97268.72;5140289;27;41238;-78
2023/08/03 00:20:18;;;;;;;3.57;1.30;;;;;;;18.47;85.80;97280.84;5158043;27;41801;-79
2023/08/03 00:22:47;;;;;;;4.83;1.73;;;;;;;18.47;85.42;97288.06;5138871;27;41816;-78
2023/08/03 00:25:15;;;;;;;2.70;1.20;;;;;;;18.48;85.25;97297.75;5140283;27;41161;-78
2023/08/03 00:27:42;;;;;;;3.40;1.30;;;;;;;18.49;85.58;97286.03;5176207;27;40964;-78
2023/08/03 00:30:11;;;;;;;2.33;1.07;;;;;;;18.16;85.39;97222.06;5139442;27;41886;-78
2023/08/03 00:32:38;;;;;;;3.13;1.00;;;;;;;18.57;85.48;97292.13;5157434;27;41690;-77
2023/08/03 00:35:07;;;;;;;2.47;1.13;;;;;;;18.61;85.44;97292.63;5140099;27;40902;-78
2023/08/03 00:37:37;;;;;;;2.93;1.10;;;;;;;18.62;85.44;97289.75;5139866;27;39513;-77
2023/08/03 00:40:07;;;;;;;4.03;1.07;;;;;;;18.55;85.20;97266.50;5176547;27;41636;-80
2023/08/03 00:42:35;;;;;;;1.07;0.97;;;;;;;18.60;85.32;97267.66;5140842;27;41651;-78
2023/08/03 00:45:03;;;;;;;4.30;0.90;;;;;;;18.67;84.85;97279.28;5141077;27;41420;-78
2023/08/03 00:47:30;;;;;;;2.23;0.90;;;;;;;18.67;85.00;97288.38;5140523;27;40955;-78
2023/08/03 00:49:58;;;;;;;4.43;1.20;;;;;;;18.59;84.45;97284.75;5140907;27;41533;-78
2023/08/03 00:52:26;;;;;;;2.90;0.80;;;;;;;18.53;83.99;97271.25;5157800;27;42042;-77
2023/08/03 00:54:55;;;;;;;4.13;1.07;;;;;;;18.62;83.06;97283.56;5140967;27;41361;-78
2023/08/03 00:57:24;;;;;;;2.77;1.00;;;;;;;18.64;82.78;97281.53;5158059;27;39905;-78
2023/08/03 00:59:51;;;;;;;2.13;1.00;;;;;;;18.68;81.55;97288.19;5175450;27;41700;-79
2023/08/03 01:02:19;;;;;;;2.87;0.90;;;;;;;18.75;81.45;97288.28;5158009;27;41615;-78
2023/08/03 01:04:46;;;;;;;4.57;1.37;;;;;;;18.78;81.80;97291.44;5176631;27;42518;-77
2023/08/03 01:07:14;;;;;;;3.07;1.00;;;;;;;18.82;81.34;97290.03;5140254;27;39886;-77
2023/08/03 01:09:42;;;;;;;2.20;0.80;;;;;;;18.82;82.06;97292.72;5174725;27;41885;-77
2023/08/03 01:12:09;;;;;;;1.70;0.70;;;;;;;18.73;81.41;97275.06;5156095;27;43084;-78
2023/08/03 01:14:38;;;;;;;1.20;0.80;;;;;;;18.86;80.63;97295.88;5156939;27;43047;-78
2023/08/03 01:17:06;;;;;;;2.67;0.90;;;;;;;18.89;80.32;97301.69;5139245;27;40044;-78
2023/08/03 01:19:34;;;;;;;3.13;0.90;;;;;;;18.91;79.77;97304.19;5139153;27;41825;-78
2023/08/03 01:22:03;;;;;;;2.93;1.10;;;;;;;18.90;79.84;97305.22;5139031;27;42943;-78
2023/08/03 01:24:32;;;;;;;3.27;1.07;;;;;;;18.76;78.69;97285.41;5174073;27;42943;-79
2023/08/03 01:27:00;;;;;;;1.90;0.93;;;;;;;18.90;79.62;97303.38;5174993;27;41801;-78
2023/08/03 01:29:28;;;;;;;1.60;0.97;;;;;;;18.85;78.08;97300.41;5175464;27;42666;-78
2023/08/03 01:31:58;;;;;;;3.23;0.90;;;;;;;18.73;77.07;97290.31;5156086;27;41850;-78
2023/08/03 01:34:25;;;;;;;2.30;0.90;;;;;;;18.81;78.00;97299.09;5156344;27;42290;-77
2023/08/03 01:36:53;;;;;;;3.37;1.30;;;;;;;18.62;77.63;97273.69;5156694;27;41671;-79
2023/08/03 01:39:24;;;;;;;2.93;1.13;;;;;;;18.70;75.94;97290.69;5175258;27;41508;-77
2023/08/03 01:41:53;;;;;;;3.97;1.03;;;;;;;18.81;75.64;97309.81;5157176;27;42692;-78
2023/08/03 01:44:26;;;;;;;2.70;0.80;;;;;;;18.85;75.82;97311.13;5157500;27;43375;-77
2023/08/03 01:46:55;;;;;;;2.40;0.70;;;;;;;18.85;75.39;97303.06;5174133;27;42173;-78
2023/08/03 01:49:23;;;;;;;4.13;1.17;;;;;;;18.86;75.39;97302.06;5139784;27;40694;-77
2023/08/03 01:51:51;;;;;;;3.43;1.10;;;;;;;18.85;74.98;97295.03;5156834;27;43684;-78
2023/08/03 01:54:19;;;;;;;4.00;0.73;;;;;;;18.89;74.79;97296.34;5175817;27;42199;-77
2023/08/03 01:56:46;;;;;;;2.37;0.87;;;;;;;18.90;74.09;97298.00;5139685;27;39857;-77
2023/08/03 01:59:15;;;;;;;2.60;1.00;;;;;;;18.88;74.24;97305.41;5174449;27;41897;-77
2023/08/03 02:01:43;;;;;;;2.57;1.00;;;;;;;18.85;74.07;97303.06;5156801;27;43466;-77
2023/08/03 02:04:10;;;;;;;3.30;0.80;;;;;;;18.88;73.91;97294.66;5174494;27;43222;-77
2023/08/03 02:06:40;;;;;;;2.00;0.70;;;;;;;18.86;74.00;97302.06;5156799;27;41037;-77
2023/08/03 02:09:08;;;;;;;3.17;1.07;;;;;;;18.45;73.77;97244.50;5138885;27;40689;-78
2023/08/03 02:11:37;;;;;;;2.60;0.80;;;;;;;18.65;73.62;97289.41;5154539;27;41567;-77
2023/08/03 02:14:04;;;;;;;3.13;0.97;;;;;;;18.71;75.40;97297.72;5173323;27;43284;-77
2023/08/03 02:16:33;;;;;;;4.87;1.00;;;;;;;18.66;75.38;97295.59;5155688;27;41932;-77
2023/08/03 02:19:01;;;;;;;5.27;1.10;;;;;;;18.58;73.97;97293.00;5138406;27;41931;-78
2023/08/03 02:21:28;;;;;;;4.57;1.07;;;;;;;18.53;74.13;97295.38;5138590;27;41686;-77
2023/08/03 02:23:56;;;;;;;2.67;0.80;;;;;;;18.50;73.87;97301.09;5173335;27;42384;-77
2023/08/03 02:26:23;;;;;;;2.90;0.63;;;;;;;18.43;74.06;97286.75;5155121;27;40878;-80
2023/08/03 02:28:50;;;;;;;4.80;0.90;;;;;;;18.34;73.31;97291.38;5173364;27;42512;-77
2023/08/03 02:31:18;;;;;;;5.03;1.27;;;;;;;18.42;74.07;97293.94;5137743;27;42695;-78
2023/08/03 02:33:51;;;;;;;3.80;0.93;;;;;;;18.40;73.62;97292.50;5152478;27;42329;-78
2023/08/03 02:36:25;;;;;;;3.10;0.73;;;;;;;18.36;73.98;97304.59;5153227;27;41892;-77
2023/08/03 02:38:57;;;;;;;4.57;0.87;;;;;;;18.30;74.32;97301.59;5155643;27;41689;-77
2023/08/03 02:41:25;;;;;;;1.57;0.77;;;;;;;18.24;73.92;97294.31;5155709;27;41912;-78
2023/08/03 02:43:52;;;;;;;3.27;0.70;;;;;;;18.24;74.00;97293.47;5156584;27;43484;-77
2023/08/03 02:46:25;;;;;;;2.50;0.73;;;;;;;18.21;73.06;97305.38;5138630;27;40084;-77
2023/08/03 02:48:54;;;;;;;2.47;0.73;;;;;;;18.21;73.57;97301.88;5174313;27;41745;-78
2023/08/03 02:51:25;;;;;;;2.17;0.67;;;;;;;18.21;73.20;97310.75;5153861;27;42650;-78
2023/08/03 02:53:52;;;;;;;1.87;0.83;;;;;;;18.12;73.28;97293.09;5139146;27;42375;-77
2023/08/03 02:56:20;;;;;;;2.17;0.80;;;;;;;18.18;73.13;97311.09;5156167;27;40876;-78
2023/08/03 02:58:52;;;;;;;1.67;0.80;;;;;;;18.16;73.18;97305.13;5172883;27;41574;-77
2023/08/03 03:01:29;;;;;;;2.23;0.70;;;;;;;18.13;73.41;97296.59;5156020;27;42287;-78
2023/08/03 03:04:00;;;;;;;4.03;0.63;;;;;;;18.06;72.95;97288.44;5138976;27;41669;-78
2023/08/03 03:06:29;;;;;;;2.97;0.90;;;;;;;18.08;73.00;97296.28;5156837;27;40017;-78
2023/08/03 03:08:56;;;;;;;8.17;0.90;;;;;;;18.09;73.25;97308.69;5137766;27;40811;-77
2023/08/03 03:11:24;;;;;;;2.57;0.60;;;;;;;18.06;73.17;97301.00;5172886;27;42623;-78
2023/08/03 03:13:52;;;;;;;10.03;1.23;;;;;;;18.03;73.69;97288.81;5155121;27;41207;-78
2023/08/03 03:16:25;;;;;;;2.80;0.60;;;;;;;18.03;73.43;97294.19;5137786;27;41175;-78
2023/08/03 03:18:54;;;;;;;2.33;1.00;;;;;;;18.04;72.94;97298.53;5122121;27;40830;-79
2023/08/03 03:21:23;;;;;;;2.43;0.73;;;;;;;17.97;71.50;97308.28;5172265;27;42812;-77
2023/08/03 03:23:51;;;;;;;3.40;0.53;;;;;;;17.97;70.63;97321.66;5154986;27;41156;-80
2023/08/03 03:26:19;;;;;;;1.90;0.40;;;;;;;17.91;69.81;97306.34;5155127;27;40168;-79
2023/08/03 03:28:46;;;;;;;2.40;0.60;;;;;;;18.05;68.99;97337.66;5137969;27;40930;-79
2023/08/03 03:31:16;;;;;;;1.57;0.70;;;;;;;18.09;68.88;97338.97;5154361;27;43009;-77
2023/08/03 03:33:44;;;;;;;1.33;0.50;;;;;;;18.12;68.33;97356.53;5138062;27;42626;-79
2023/08/03 03:36:15;;;;;;;2.83;0.70;;;;;;;18.17;68.19;97355.00;5137644;27;40138;-78
2023/08/03 03:38:45;;;;;;;3.80;0.70;;;;;;;18.22;68.28;97347.25;5137305;27;40666;-78
2023/08/03 03:41:12;;;;;;;1.77;0.57;;;;;;;18.26;67.19;97359.28;5137468;27;41513;-79
2023/08/03 03:43:43;;;;;;;1.63;0.60;;;;;;;18.39;67.09;97357.84;5152694;27;42373;-78
2023/08/03 03:46:11;;;;;;;2.73;0.63;;;;;;;18.48;66.71;97362.09;5137817;27;41167;-78
2023/08/03 03:48:39;;;;;;;1.40;0.53;;;;;;;18.53;67.44;97370.44;5138253;27;40817;-77
2023/08/03 03:51:07;;;;;;;3.07;0.70;;;;;;;18.49;66.63;97363.75;5154630;27;42903;-78
2023/08/03 03:53:34;;;;;;;4.67;0.60;;;;;;;18.63;66.86;97387.13;5137858;27;42421;-77
2023/08/03 03:56:11;;;;;;;6.73;1.00;;;;;;;18.67;66.88;97383.88;5139013;27;40282;-77
2023/08/03 03:58:40;;;;;;;2.83;0.60;;;;;;;18.70;66.39;97385.38;5158010;27;42949;-77
2023/08/03 04:01:07;;;;;;;2.50;0.63;;;;;;;18.65;66.91;97377.06;5175873;27;42959;-78
2023/08/03 04:03:35;;;;;;;0.97;0.50;;;;;;;18.35;67.00;97351.16;5158658;27;43292;-80
2023/08/03 04:06:07;;;;;;;3.13;0.50;;;;;;;18.46;67.37;97364.13;5141013;27;39883;-78
2023/08/03 04:08:35;;;;;;;0.53;0.43;;;;;;;18.52;67.08;97379.50;5140944;27;41198;-77
2023/08/03 04:11:03;;;;;;;1.93;0.43;;;;;;;18.58;67.24;97393.03;5155892;27;42160;-77
2023/08/03 04:13:34;;;;;;;1.10;0.43;;;;;;;18.42;67.20;97373.56;5157894;27;42320;-78
2023/08/03 04:16:01;;;;;;;3.07;0.70;;;;;;;18.52;67.60;97393.72;5157327;27;39965;-77
2023/08/03 04:18:32;;;;;;;1.63;0.70;;;;;;;18.54;67.72;97388.19;5157269;27;40647;-79
2023/08/03 04:20:59;;;;;;;1.40;0.47;;;;;;;18.54;67.58;97394.38;5139799;27;41793;-78
2023/08/03 04:23:27;;;;;;;3.00;0.60;;;;;;;18.55;68.13;97395.19;5139898;27;41473;-77
2023/08/03 04:25:56;;;;;;;2.47;0.70;;;;;;;18.61;66.51;97416.78;5157002;27;39987;-77
2023/08/03 04:28:26;;;;;;;2.47;0.50;;;;;;;18.72;66.06;97412.00;5139997;27;41883;-78
2023/08/03 04:30:55;;;;;;;5.60;1.10;;;;;;;18.75;65.13;97417.84;5157182;27;42171;-78
2023/08/03 04:33:22;;;;;;;0.67;0.47;;;;;;;18.85;65.17;97410.38;5139964;27;42295;-79
2023/08/03 04:35:56;;;;;;;2.13;0.63;;;;;;;18.96;65.38;97415.28;5140596;27;40928;-77
2023/08/03 04:38:32;;;;;;;1.63;0.50;;;;;;;19.06;65.59;97416.84;5140164;27;41836;-78
2023/08/03 04:41:02;;;;;;;1.67;0.53;;;;;;;19.04;65.51;97406.28;5154668;27;42928;-77
2023/08/03 04:43:33;;;;;;;2.07;0.67;;;;;;;19.20;65.99;97424.06;5138125;27;42552;-77
2023/08/03 04:46:03;;;;;;;1.47;0.60;;;;;;;19.16;64.79;97420.13;5123434;27;41028;-79
2023/08/03 04:48:30;;;;;;;0.97;0.47;;;;;;;19.26;65.27;97431.41;5157877;27;42130;-80
2023/08/03 04:51:00;;;;;;;2.40;0.80;;;;;;;19.27;64.97;97433.06;5140299;27;41732;-77
2023/08/03 04:53:29;;;;;;;1.10;0.50;;;;;;;19.27;65.14;97435.75;5140413;27;41341;-77
2023/08/03 04:55:56;;;;;;;1.87;0.40;;;;;;;19.26;65.44;97426.03;5140537;27;40060;-80
2023/08/03 04:58:25;;;;;;;1.10;0.43;;;;;;;19.21;65.35;97421.22;5157464;27;41798;-78
2023/08/03 05:00:53;;;;;;;2.30;0.53;;;;;;;19.24;65.35;97418.16;5140148;27;41813;-77
2023/08/03 05:03:22;;;;;;;2.03;0.60;;;;;;;19.28;65.25;97424.00;5157858;27;43001;-78
2023/08/03 05:05:49;;;;;;;0.37;0.37;;;;;;;19.25;64.91;97429.72;5123046;27;41008;-78
2023/08/03 05:08:22;;;;;;;0.93;0.37;;;;;;;19.21;65.06;97431.13;5156058;27;41849;-78
2023/08/03 05:10:51;;;;;;;3.23;0.50;;;;;;;19.16;65.47;97429.00;5152910;27;43570;-80
2023/08/03 05:13:21;;;;;;;1.30;0.30;;;;;;;19.09;65.54;97422.69;5156599;27;43116;-78
2023/08/03 05:15:48;;;;;;;2.20;0.70;;;;;;;18.95;64.97;97385.94;5139356;27;40979;-78
2023/08/03 05:18:16;;;;;;;3.33;0.60;;;;;;;19.12;65.69;97419.66;5156230;27;42379;-78
2023/08/03 05:20:45;;;;;;;1.20;0.30;;;;;;;19.14;65.30;97416.78;5173739;27;43275;-77
2023/08/03 05:23:13;;;;;;;0.83;0.30;;;;;;;19.23;65.10;97424.53;5138820;27;43455;-77
2023/08/03 05:25:41;;;;;;;1.20;0.50;;;;;;;19.33;64.62;97421.56;5138626;27;40638;-78
2023/08/03 05:28:08;;;;;;;0.67;0.30;;;;;;;19.40;64.41;97427.06;5138985;27;40242;-77
2023/08/03 05:30:36;;;;;;;0.50;0.30;;;;;;;19.42;64.84;97412.41;5175052;27;44321;-78
2023/08/03 05:33:03;;;;;;;2.03;0.60;;;;;;;19.65;64.05;97431.97;5155579;27;42577;-79
2023/08/03 05:35:31;;;;;;;3.67;0.40;;;;;;;19.72;63.86;97424.81;5155896;27;41438;-79
2023/08/03 05:38:00;;;;;;;1.90;0.30;;;;;;;19.69;63.68;97446.66;5174577;27;42649;-77
2023/08/03 05:40:27;;;;;;;1.13;0.40;;;;;;;19.69;63.90;97443.97;5138928;27;41724;-77
2023/08/03 05:42:55;;;;;;;1.97;0.37;;;;;;;19.70;64.07;97439.44;5139447;27;41266;-77
2023/08/03 05:45:41;;;;;;;1.23;0.70;;;;;;;19.71;64.52;97441.13;5139384;27;39817;-79
2023/08/03 05:48:13;;;;;;;0.87;0.70;;;;;;;19.69;64.90;97449.34;5174604;27;41621;-77
2023/08/03 05:50:42;;;;;;;3.07;0.60;;;;;;;19.66;64.61;97455.09;5172548;27;42863;-76
2023/08/03 05:53:13;;;;;;;0.73;0.30;;;;;;;19.84;64.73;97448.50;5155354;27;43276;-77
2023/08/03 05:55:41;;;;;;;1.57;0.67;;;;;;;19.92;63.81;97464.50;5156985;27;40973;-78
2023/08/03 05:58:11;;;;;;;1.10;0.30;;;;;;;19.79;64.00;97427.56;5175183;27;41750;-77
2023/08/03 06:00:41;;;;;;;1.10;0.30;;;;;;;19.94;63.66;97463.28;5156938;27;42095;-77
2023/08/03 06:03:12;;;;;;;1.87;0.40;;;;;;;19.59;63.37;97430.00;5175304;27;42147;-79
2023/08/03 06:05:44;;;;;;;0.40;0.40;;;;;;;19.70;64.34;97463.63;5138832;27;41171;-78
2023/08/03 06:08:18;;;;;;;1.00;0.40;;;;;;;19.64;64.20;97454.47;5156457;27;40939;-77
2023/08/03 06:10:47;;;;;;;0.37;0.30;;;;;;;19.76;64.50;97470.09;5137521;27;42758;-80
2023/08/03 06:13:16;;;;;;;0.43;0.30;;;;;;;19.81;63.52;97478.41;5155238;27;42369;-78
2023/08/03 06:15:45;;;;;;;0.57;0.50;;;;;;;19.86;64.31;97474.16;5138129;27;39862;-78
2023/08/03 06:18:16;;;;;;;1.53;0.40;;;;;;;20.00;64.05;97476.00;5155272;27;41142;-79
2023/08/03 06:20:46;;;;;;;2.13;0.50;;;;;;;20.07;63.46;97492.19;5154445;27;42814;-77
2023/08/03 06:23:18;;;;;;;0.97;0.50;;;;;;;20.17;63.51;97506.16;5155514;27;42372;-77
2023/08/03 06:25:47;;;;;;;1.83;0.40;;;;;;;20.24;63.29;97492.78;5155854;27;39968;-78
2023/08/03 06:28:16;;;;;;;1.60;0.40;;;;;;;20.35;63.22;97506.59;5155560;27;41733;-78
2023/08/03 06:30:45;;;;;;;1.40;0.40;;;;;;;20.63;62.25;97511.25;5155344;27;43056;-79
2023/08/03 06:33:16;;;;;;;0.70;0.37;;;;;;;20.91;61.84;97509.41;5154833;27;41685;-78
2023/08/03 06:35:45;;;;;;;2.57;0.30;;;;;;;21.15;60.49;97506.31;5138059;27;40834;-79
2023/08/03 06:38:16;;;;;;;2.80;0.57;;;;;;;21.27;59.91;97508.47;5137789;27;42483;-79
2023/08/03 06:40:46;;;;;;;1.87;0.50;;;;;;;21.44;59.32;97520.63;5155213;27;42042;-77
2023/08/03 06:43:14;;;;;;;0.77;0.30;;;;;;;21.52;58.70;97509.69;5155147;27;42628;-78
2023/08/03 06:45:43;;;;;;;3.80;0.53;;;;;;;21.84;57.72;97530.63;5138384;27;40220;-80
2023/08/03 06:48:11;;;;;;;1.13;0.77;;;;;;;21.93;57.38;97530.44;5138904;27;40729;-79
2023/08/03 06:50:39;;;;;;;1.73;0.50;;;;;;;21.64;57.23;97473.09;5174690;27;42692;-79
2023/08/03 06:53:08;;;;;;;1.97;0.40;;;;;;;21.93;56.86;97519.66;5155307;27;41794;-78
2023/08/03 06:55:37;;;;;;;1.83;0.47;;;;;;;21.98;56.71;97538.78;5155926;27;41213;-79
2023/08/03 06:58:04;;;;;;;0.77;0.47;;;;;;;21.83;56.90;97522.75;5154998;27;42484;-78
2023/08/03 07:00:32;;;;;;;1.73;0.50;;;;;;;21.86;56.33;97525.88;5155752;27;41932;-78
2023/08/03 07:03:00;;;;;;;0.87;0.40;;;;;;;21.85;56.32;97529.59;5155522;27;40856;-80
2023/08/03 07:05:28;;;;;;;2.07;0.70;;;;;;;22.00;56.36;97536.75;5138433;27;40117;-77
2023/08/03 07:07:55;;;;;;;1.10;0.53;;;;;;;22.13;56.13;97547.59;5138301;27;40497;-78
2023/08/03 07:10:23;;;;;;;0.63;0.50;;;;;;;22.20;55.65;97546.59;5153741;27;42808;-77
2023/08/03 07:12:52;;;;;;;0.97;0.60;;;;;;;22.15;55.62;97537.44;5136528;27;42595;-78
2023/08/03 07:15:20;;;;;;;0.83;0.40;;;;;;;21.99;55.97;97513.53;5154409;27;39682;-78
2023/08/03 07:17:48;;;;;;;1.00;0.60;;;;;;;22.10;55.21;97543.44;5173194;27;42657;-77
2023/08/03 07:20:17;;;;;;;2.70;0.60;;;;;;;22.15;54.79;97548.22;5154732;27;43760;-77
2023/08/03 07:22:45;;;;;;;1.10;0.50;;;;;;;22.21;55.39;97539.34;5136455;27;42238;-78
2023/08/03 07:25:13;;;;;;;1.40;0.40;;;;;;;22.35;53.71;97567.19;5171998;27;42192;-79
2023/08/03 07:27:41;;;;;;;1.73;0.30;;;;;;;22.63;53.70;97581.38;5136610;27;40643;-79
2023/08/03 07:30:10;;;;;;;2.43;0.57;;;;;;;22.64;53.30;97572.25;5154213;27;43170;-77
2023/08/03 07:32:38;;;;;;;0.90;0.50;;;;;;;22.61;53.19;97580.78;5139821;27;41346;-77
2023/08/03 07:35:07;;;;;;;1.67;0.40;;;;;;;22.56;53.15;97581.38;5140775;27;39830;-77
2023/08/03 07:37:34;;;;;;;0.43;0.30;;;;;;;22.78;53.06;97586.66;5140166;27;41797;-76
2023/08/03 07:40:02;;;;;;;1.20;0.40;;;;;;;22.92;53.46;97574.84;5176812;27;43046;-77
2023/08/03 07:42:30;;;;;;;2.33;0.50;;;;;;;23.22;52.77;97597.75;5158661;27;43236;-77
2023/08/03 07:44:59;;;;;;;0.67;0.40;;;;;;;23.16;51.66;97585.06;5158515;27;39978;-78
2023/08/03 07:47:30;;;;;;;0.93;0.53;;;;;;;23.23;52.22;97602.13;5177171;27;42623;-77
2023/08/03 07:49:58;;;;;;;1.73;0.60;;;;;;;23.34;51.61;97610.63;5141119;27;42158;-79
2023/08/03 07:52:25;;;;;;;2.03;0.60;;;;;;;23.64;50.84;97606.50;5158638;27;42323;-78
2023/08/03 07:54:54;;;;;;;3.03;0.60;;;;;;;23.82;49.75;97630.19;5176247;27;40722;-77
2023/08/03 07:57:22;;;;;;;3.33;0.30;;;;;;;23.63;49.65;97621.06;5158272;27;40934;-77
2023/08/03 07:59:50;;;;;;;2.40;0.60;;;;;;;23.64;50.37;97628.13;5157947;27;43152;-76
2023/08/03 08:02:17;;;;;;;0.60;0.50;;;;;;;23.94;49.16;97645.59;5158411;27;42615;-76
2023/08/03 08:04:51;;;;;;;1.30;0.50;;;;;;;24.25;49.97;97633.25;5124048;27;40097;-76
2023/08/03 08:07:19;;;;;;;0.97;0.40;;;;;;;24.80;48.04;97655.34;5158532;27;41864;-77
2023/08/03 08:09:46;;;;;;;1.43;0.30;;;;;;;24.73;48.08;97665.41;5176052;27;42743;-78
2023/08/03 08:12:15;;;;;;;0.93;0.40;;;;;;;24.30;48.72;97644.28;5156856;27;43235;-77
2023/08/03 08:14:42;;;;;;;2.50;0.50;;;;;;;24.16;48.85;97669.69;5156795;27;40263;-76
2023/08/03 08:17:10;;;;;;;0.43;0.30;;;;;;;24.42;48.67;97661.53;5157126;27;41928;-77
2023/08/03 08:19:38;;;;;;;0.73;0.40;;;;;;;24.77;48.82;97661.19;5140064;27;41876;-78
2023/08/03 08:22:08;;;;;;;1.30;0.53;;;;;;;25.36;47.42;97688.00;5157065;27;42767;-77
2023/08/03 08:24:36;;;;;;;1.33;0.30;;;;;;;25.72;47.26;97676.50;5157176;27;40109;-78
2023/08/03 08:27:04;;;;;;;1.17;0.60;;;;;;;25.61;46.30;97690.78;5157047;27;41873;-80
2023/08/03 08:29:32;;;;;;;0.93;0.63;;;;;;;25.28;47.21;97659.28;5157000;27;43028;-78
2023/08/03 08:32:00;;;;;;;1.87;0.50;;;;;;;25.76;47.23;97689.41;5156714;27;42354;-79
2023/08/03 08:34:27;;;;;;;0.50;0.37;;;;;;;25.58;47.42;97707.47;5157212;27;41912;-78
2023/08/03 08:36:55;;;;;;;1.17;0.40;;;;;;;25.22;46.79;97692.66;5157168;27;42661;-78
2023/08/03 08:39:29;;;;;;;3.40;0.50;;;;;;;24.63;47.76;97699.16;5139369;27;42687;-78
2023/08/03 08:41:56;;;;;;;0.30;0.20;;;;;;;24.40;48.68;97687.13;5157231;27;41476;-77
2023/08/03 08:44:24;;;;;;;0.80;0.30;;;;;;;24.38;48.58;97676.53;5156822;27;40003;-78
2023/08/03 08:46:51;;;;;;;0.70;0.40;;;;;;;24.63;48.65;97699.16;5157883;27;40653;-77
2023/08/03 08:49:19;;;;;;;1.63;0.30;;;;;;;25.29;47.22;97696.19;5175628;27;42713;-78
2023/08/03 08:51:49;;;;;;;0.50;0.30;;;;;;;25.60;47.10;97683.66;5174822;27;43247;-79
2023/08/03 08:54:17;;;;;;;3.37;3.20;;;;;;;25.73;45.86;97699.88;5157492;27;40057;-78
2023/08/03 08:56:46;;;;;;;0.37;0.37;;;;;;;25.97;45.28;97706.34;5157069;27;40812;-77
2023/08/03 08:59:13;;;;;;;1.00;0.50;;;;;;;26.04;45.62;97718.81;5157316;27;42098;-77
2023/08/03 09:01:50;;;;;;;1.80;0.30;;;;;;;25.78;45.61;97697.34;5157423;27;42650;-78
2023/08/03 09:04:28;;;;;;;0.30;0.30;;;;;;;25.64;46.71;97701.19;5176564;27;41391;-78
2023/08/03 09:06:56;;;;;;;0.80;0.30;;;;;;;25.70;46.39;97722.03;5139993;27;40514;-77
2023/08/03 09:09:29;;;;;;;0.20;0.20;;;;;;;25.54;46.42;97717.09;5174253;27;42719;-78
2023/08/03 09:11:58;;;;;;;0.60;0.30;;;;;;;25.43;46.41;97713.19;5155897;27;41996;-78
2023/08/03 09:14:26;;;;;;;0.53;0.40;;;;;;;25.79;46.64;97720.69;5156364;27;40207;-77
2023/08/03 09:16:53;;;;;;;1.43;0.37;;;;;;;25.71;46.15;97712.84;5156175;27;40586;-77
2023/08/03 09:19:37;;;;;;;0.97;0.40;;;;;;;25.82;45.45;97725.69;5155741;27;42925;-77
2023/08/03 09:22:05;;;;;;;0.30;0.30;;;;;;;25.81;45.79;97740.31;5173456;27;43222;-79
2023/08/03 09:24:35;;;;;;;0.60;0.40;;;;;;;25.89;45.85;97737.31;5156910;27;41345;-79
2023/08/03 09:27:07;;;;;;;1.27;0.53;;;;;;;26.04;45.18;97731.56;5140715;27;40697;-80
2023/08/03 09:29:35;;;;;;;0.93;0.60;;;;;;;25.99;45.58;97758.50;5156999;27;41415;-75
2023/08/03 09:32:06;;;;;;;0.53;0.30;;;;;;;25.71;46.00;97742.66;5139613;27;42476;-83
2023/08/03 09:34:38;;;;;;;1.93;0.40;;;;;;;25.84;46.26;97720.84;5156835;27;39970;-82
2023/08/03 09:37:10;;;;;;;0.80;0.30;;;;;;;26.00;45.72;97723.03;5157174;27;41761;-86
2023/08/03 09:39:39;;;;;;;0.90;0.40;;;;;;;26.09;45.55;97737.97;5139389;27;42320;-83
2023/08/03 09:42:21;;;;;;;1.17;0.60;;;;;;;26.03;45.47;97763.28;5176455;27;42168;-83
2023/08/03 09:44:50;;;;;;;0.60;0.40;;;;;;;26.13;45.69;97766.34;5140326;27;41329;-86
2023/08/03 09:47:18;;;;;;;0.80;0.50;;;;;;;26.07;45.44;97761.81;5140451;27;42386;-88
2023/08/03 09:49:45;;;;;;;0.47;0.40;;;;;;;26.00;44.85;97771.84;5157626;27;42902;-83
2023/08/03 09:52:27;;;;;;;1.43;0.50;;;;;;;25.78;45.52;97784.13;5140095;27;41384;-82
2023/08/03 09:55:01;;;;;;;0.70;0.47;;;;;;;25.27;46.51;97763.31;5139936;27;41373;-84
2023/08/03 09:57:37;;;;;;;0.57;0.40;;;;;;;25.04;46.93;97787.38;5154449;27;42641;-81
2023/08/03 10:00:06;;;;;;;0.40;0.30;;;;;;;24.82;47.53;97769.72;5139374;27;42682;-86
2023/08/03 10:02:48;;;;;;;2.77;0.40;;;;;;;24.67;47.75;97781.63;5173039;27;42986;-80
2023/08/03 10:05:19;;;;;;;0.87;0.50;;;;;;;24.35;48.04;97760.84;5157195;27;40076;-81
2023/08/03 10:07:56;;;;;;;1.80;0.37;;;;;;;24.48;48.73;97787.06;5141888;27;41992;-84
2023/08/03 10:10:34;;;;;;;0.27;0.27;;;;;;;24.48;48.29;97782.47;5155170;27;41829;-82
2023/08/03 10:13:05;;;;;;;0.93;0.30;;;;;;;24.46;48.25;97795.41;5138906;27;42861;-82
2023/08/03 10:15:43;;;;;;;1.27;0.40;;;;;;;24.10;48.63;97765.22;5138622;27;40285;-82
2023/08/03 10:18:11;;;;;;;0.63;0.50;;;;;;;24.43;49.35;97763.34;5139442;27;40753;-84
2023/08/03 10:20:40;;;;;;;0.60;0.30;;;;;;;24.65;48.25;97762.03;5138756;27;43174;-84
2023/08/03 10:23:14;;;;;;;2.07;0.27;;;;;;;24.79;48.32;97779.09;5138871;27;43559;-85
2023/08/03 10:25:53;;;;;;;1.23;0.30;;;;;;;24.83;48.23;97779.50;5155591;27;40182;-82
2023/08/03 10:28:26;;;;;;;0.80;0.63;;;;;;;24.72;48.66;97780.16;5155177;27;42431;-82
2023/08/03 10:31:15;;;;;;;0.70;0.40;;;;;;;24.60;49.13;97802.44;5138630;27;42387;-83
2023/08/03 10:34:05;;;;;;;1.50;0.40;;;;;;;24.43;48.80;97790.41;5133524;27;41305;-84
2023/08/03 10:36:49;;;;;;;0.60;0.30;;;;;;;24.94;48.20;97787.00;5171492;27;40880;-82
2023/08/03 10:39:37;;;;;;;0.23;0.20;;;;;;;26.01;46.90;97797.13;5153938;27;41334;-80
2023/08/03 10:42:19;;;;;;;0.27;0.27;;;;;;;26.13;45.10;97782.63;5139018;27;43549;-82
2023/08/03 10:44:51;;;;;;;0.20;0.20;;;;;;;26.62;44.87;97808.13;5139614;27;41037;-82
2023/08/03 10:47:31;;;;;;;0.50;0.30;;;;;;;26.96;44.19;97792.31;5139538;27;40128;-82
2023/08/03 10:50:01;;;;;;;0.30;0.30;;;;;;;27.56;42.86;97819.69;5139748;27;41598;-85
2023/08/03 10:52:30;;;;;;;0.37;0.33;;;;;;;28.07;42.53;97816.41;5139424;27;42434;-82
2023/08/03 10:55:00;;;;;;;2.07;0.47;;;;;;;27.96;41.75;97837.09;5139080;27;40986;-83
2023/08/03 10:57:30;;;;;;;1.47;0.40;;;;;;;28.20;41.89;97854.34;5139244;27;39979;-81
2023/08/03 11:00:03;;;;;;;0.77;0.30;;;;;;;28.52;41.04;97852.19;5174670;27;41973;-82
2023/08/03 11:02:34;;;;;;;0.60;0.30;;;;;;;28.39;41.69;97869.56;5140334;27;42923;-83
2023/08/03 11:05:04;;;;;;;0.93;0.40;;;;;;;27.92;41.28;97835.91;5156240;27;41670;-81
2023/08/03 11:07:38;;;;;;;2.17;0.50;;;;;;;27.69;42.49;97868.47;5174762;27;40993;-82
2023/08/03 11:10:07;;;;;;;1.63;0.53;;;;;;;26.95;43.66;97853.19;5172392;27;42073;-82
2023/08/03 11:12:36;;;;;;;0.93;0.40;;;;;;;26.40;44.57;97863.88;5154975;27;41990;-84
2023/08/03 11:15:08;;;;;;;1.07;0.60;;;;;;;26.05;45.22;97839.88;5137025;27;41709;-82
2023/08/03 11:17:38;;;;;;;1.17;0.53;;;;;;;25.79;45.62;97840.03;5155615;27;40987;-81
2023/08/03 11:20:08;;;;;;;1.20;0.40;;;;;;;25.69;46.61;97843.22;5137773;27;41958;-82
2023/08/03 11:22:36;;;;;;;0.77;0.30;;;;;;;25.56;46.60;97839.72;5137959;27;41971;-81
2023/08/03 11:25:07;;;;;;;0.60;0.47;;;;;;;25.72;46.57;97845.47;5155449;27;42341;-82
2023/08/03 11:27:35;;;;;;;1.30;0.50;;;;;;;25.86;45.57;97843.53;5155337;27;40979;-82
2023/08/03 11:30:03;;;;;;;3.73;0.73;;;;;;;25.88;46.23;97837.88;5154704;27;41163;-83
2023/08/03 11:32:35;;;;;;;1.43;0.50;;;;;;;26.10;46.01;97842.75;5155442;27;41838;-83
2023/08/03 11:35:05;;;;;;;1.07;0.40;;;;;;;26.09;45.13;97851.09;5154840;27;41184;-83
2023/08/03 11:37:34;;;;;;;0.50;0.33;;;;;;;26.41;45.75;97857.41;5137652;27;40845;-83
2023/08/03 11:40:04;;;;;;;0.80;0.40;;;;;;;26.43;44.65;97826.25;5173700;27;42535;-84
2023/08/03 11:42:33;;;;;;;0.40;0.40;;;;;;;26.62;44.63;97848.84;5155501;27;42719;-82
2023/08/03 11:45:00;;;;;;;1.43;0.50;;;;;;;27.05;44.49;97867.09;5138391;27;41417;-81